Kongen — LCDE — position and weather

sailwx.info

Track history (hours):
 
Tides and Currents Weather Stations Pressure Air Temp Water Temp Dewpoint Dewpoint Depression Visibility Wind Speed Wind Dir Waves Ship Positions

Kongen

Last reported at 2016-Jul-25 15:10 UTC. Time now 2016-Jul-25 15:54 UTC.
Position N 59°54' E 010°41'.

Length 50 m; draft 3.2 m.

Type: Passenger vessel. MMSI: 258509000.

Date/timePositionNaut miles runAvg speedWind from/ knotsBaromVisibWave heightAir tempDewpointWater temp
2016-Jul-25 15:10N 59°54' E 010°41'1 0.6
2016-Jul-25 14:13N 59°54' E 010°42'0 0.4
2016-Jul-25 13:17N 59°54' E 010°43'0 0.1
2016-Jul-25 12:15N 59°54' E 010°43'1 0.6
2016-Jul-25 11:11N 59°54' E 010°41'1 0.3
2016-Jul-25 06:33N 59°53' E 010°40'0 0.1
2016-Jul-25 05:33N 59°53' E 010°40'0 0.0
2016-Jul-25 04:33N 59°53' E 010°40'0 0.0
2016-Jul-25 03:33N 59°53' E 010°40'1 0.5
2016-Jul-25 02:33N 59°52' E 010°39'0 0.0
2016-Jul-25 01:30N 59°52' E 010°39'0 0.0
2016-Jul-25 00:33N 59°52' E 010°39'0 0.0
2016-Jul-24 23:33N 59°52' E 010°39'2 1.2
2016-Jul-24 22:10N 59°54' E 010°41'0 0.0
2016-Jul-24 21:10N 59°54' E 010°41'0 0.1
2016-Jul-24 20:11N 59°54' E 010°42'0 0.0
2016-Jul-24 19:10N 59°54' E 010°42'0 0.0
2016-Jul-24 18:11N 59°54' E 010°41'0 0.0
2016-Jul-24 17:10N 59°54' E 010°41'0 0.2
2016-Jul-24 16:09N 59°54' E 010°41'0 0.0
2016-Jul-24 15:10N 59°54' E 010°41'  
2016-Jul-17 14:10N 59°54' E 010°41'0 0.1
2016-Jul-17 13:10N 59°54' E 010°41'1 1.6
2016-Jul-17 12:18N 59°54' E 010°44'1 1.3
2016-Jul-17 11:10N 59°54' E 010°41'0 0.0
2016-Jul-17 10:10N 59°54' E 010°41'0 0.0
2016-Jul-17 09:10N 59°54' E 010°41'0 0.2
2016-Jul-17 08:11N 59°54' E 010°42'0 0.3
2016-Jul-17 07:10N 59°53' E 010°41'1 0.5
2016-Jul-17 06:13N 59°54' E 010°42'0 0.0
2016-Jul-16 15:10N 59°54' E 010°41'0 0.1
2016-Jul-16 14:10N 59°54' E 010°41'0 0.2
2016-Jul-16 13:11N 59°54' E 010°41'0 0.1
2016-Jul-16 12:11N 59°54' E 010°42'0 0.1
2016-Jul-16 11:11N 59°54' E 010°41'0 0.1
2016-Jul-16 10:10N 59°54' E 010°41'0 0.1
2016-Jul-16 09:11N 59°54' E 010°41'0 0.0
2016-Jul-16 08:11N 59°54' E 010°41'0 0.0
2016-Jul-16 07:11N 59°54' E 010°41'0 0.2
2016-Jul-16 06:10N 59°54' E 010°41'1 0.1
2016-Jul-15 15:33N 59°53' E 010°40'  
Track history (hours):
 
Tides and Currents Weather Stations Pressure Air Temp Water Temp Dewpoint Dewpoint Depression Visibility Wind Speed Wind Dir Waves Ship Positions

Kongen

Last reported at 2016-Jul-25 15:10 UTC. Time now 2016-Jul-25 15:54 UTC.
Position N 59°54' E 010°41'.

Length 50 m; draft 3.2 m.

Type: Passenger vessel. MMSI: 258509000.

Date/timePositionNaut miles runAvg speedWind from/ knotsBaromVisibWave heightAir tempDewpointWater temp
2016-Jul-25 15:10N 59°54' E 010°41'1 0.6
2016-Jul-25 14:13N 59°54' E 010°42'0 0.4
2016-Jul-25 13:17N 59°54' E 010°43'0 0.1
2016-Jul-25 12:15N 59°54' E 010°43'1 0.6
2016-Jul-25 11:11N 59°54' E 010°41'1 0.3
2016-Jul-25 06:33N 59°53' E 010°40'0 0.1
2016-Jul-25 05:33N 59°53' E 010°40'0 0.0
2016-Jul-25 04:33N 59°53' E 010°40'0 0.0
2016-Jul-25 03:33N 59°53' E 010°40'1 0.5
2016-Jul-25 02:33N 59°52' E 010°39'0 0.0
2016-Jul-25 01:30N 59°52' E 010°39'0 0.0
2016-Jul-25 00:33N 59°52' E 010°39'0 0.0
2016-Jul-24 23:33N 59°52' E 010°39'2 1.2
2016-Jul-24 22:10N 59°54' E 010°41'0 0.0
2016-Jul-24 21:10N 59°54' E 010°41'0 0.1
2016-Jul-24 20:11N 59°54' E 010°42'0 0.0
2016-Jul-24 19:10N 59°54' E 010°42'0 0.0
2016-Jul-24 18:11N 59°54' E 010°41'0 0.0
2016-Jul-24 17:10N 59°54' E 010°41'0 0.2
2016-Jul-24 16:09N 59°54' E 010°41'0 0.0
2016-Jul-24 15:10N 59°54' E 010°41'  
2016-Jul-17 14:10N 59°54' E 010°41'0 0.1
2016-Jul-17 13:10N 59°54' E 010°41'1 1.6
2016-Jul-17 12:18N 59°54' E 010°44'1 1.3
2016-Jul-17 11:10N 59°54' E 010°41'0 0.0
2016-Jul-17 10:10N 59°54' E 010°41'0 0.0
2016-Jul-17 09:10N 59°54' E 010°41'0 0.2
2016-Jul-17 08:11N 59°54' E 010°42'0 0.3
2016-Jul-17 07:10N 59°53' E 010°41'1 0.5
2016-Jul-17 06:13N 59°54' E 010°42'0 0.0
2016-Jul-16 15:10N 59°54' E 010°41'0 0.1
2016-Jul-16 14:10N 59°54' E 010°41'0 0.2
2016-Jul-16 13:11N 59°54' E 010°41'0 0.1
2016-Jul-16 12:11N 59°54' E 010°42'0 0.1
2016-Jul-16 11:11N 59°54' E 010°41'0 0.1
2016-Jul-16 10:10N 59°54' E 010°41'0 0.1
2016-Jul-16 09:11N 59°54' E 010°41'0 0.0
2016-Jul-16 08:11N 59°54' E 010°41'0 0.0
2016-Jul-16 07:11N 59°54' E 010°41'0 0.2
2016-Jul-16 06:10N 59°54' E 010°41'1 0.1
2016-Jul-15 15:33N 59°53' E 010°40'  

Dump ship's entire track history